createdAt,value
2023-05-10T00:00:50.120Z,58.45
2023-05-10T00:01:50.265Z,58.34
2023-05-10T00:02:50.368Z,58.34
2023-05-10T00:03:50.454Z,58.65
2023-05-10T00:04:50.403Z,58.75
2023-05-10T00:05:50.467Z,58.55
2023-05-10T00:06:50.541Z,58.65
2023-05-10T00:07:50.633Z,58.65
2023-05-10T00:08:50.654Z,58.96
2023-05-10T00:09:50.732Z,58.96
2023-05-10T00:10:50.794Z,59.27
2023-05-10T00:11:50.865Z,59.30
2023-05-10T00:12:50.979Z,59.30
2023-05-10T00:13:51.055Z,58.98
2023-05-10T00:14:51.132Z,59.57
2023-05-10T00:15:51.201Z,59.16
2023-05-10T00:16:51.297Z,58.98
2023-05-10T00:17:51.389Z,59.30
2023-05-10T00:18:51.512Z,59.30
2023-05-10T00:19:51.530Z,59.30
2023-05-10T00:20:51.591Z,59.19
2023-05-10T00:21:51.665Z,59.80
2023-05-10T00:22:51.735Z,59.50
2023-05-10T00:23:51.823Z,59.60
2023-05-10T00:24:51.882Z,59.39
2023-05-10T00:25:51.976Z,59.39
2023-05-10T00:26:52.039Z,59.50
2023-05-10T00:27:52.104Z,59.50
2023-05-10T00:28:52.199Z,59.19
2023-05-10T00:29:52.284Z,59.30
2023-05-10T00:30:52.357Z,59.39
2023-05-10T00:31:52.487Z,59.30
2023-05-10T00:32:52.533Z,59.19
2023-05-10T00:33:52.571Z,58.98
2023-05-10T00:34:52.694Z,59.09
2023-05-10T00:35:52.712Z,59.09
2023-05-10T00:36:52.804Z,59.09
2023-05-10T00:37:52.862Z,59.30
2023-05-10T00:38:52.933Z,59.42
2023-05-10T00:39:53.009Z,59.42
2023-05-10T00:40:53.090Z,59.42
2023-05-10T00:41:53.194Z,59.32
2023-05-10T00:42:53.274Z,59.53
2023-05-10T00:43:53.404Z,60.03
2023-05-10T00:44:53.422Z,59.94
2023-05-10T00:45:53.546Z,59.96
2023-05-10T00:46:53.577Z,60.17
2023-05-10T00:47:53.672Z,60.06
2023-05-10T00:48:53.740Z,60.27
2023-05-10T00:49:53.801Z,60.06
2023-05-10T00:50:53.883Z,60.37
2023-05-10T00:51:53.947Z,60.27
2023-05-10T00:52:54.036Z,60.17
2023-05-10T00:53:54.113Z,60.58
2023-05-10T00:54:54.168Z,60.68
2023-05-10T00:55:54.233Z,61.09
2023-05-10T00:56:54.298Z,61.09
2023-05-10T00:57:54.385Z,60.91
2023-05-10T00:58:54.445Z,61.01
2023-05-10T00:59:54.540Z,61.11
2023-05-10T01:00:54.611Z,61.11
2023-05-10T01:01:54.670Z,61.22
2023-05-10T01:02:54.869Z,61.11
2023-05-10T01:03:54.852Z,61.01
2023-05-10T01:04:54.937Z,61.11
2023-05-10T01:05:55.029Z,61.43
2023-05-10T01:06:55.100Z,61.43
2023-05-10T01:07:55.202Z,61.63
2023-05-10T01:08:55.280Z,61.22
2023-05-10T01:09:55.354Z,61.32
2023-05-10T01:10:55.441Z,61.73
2023-05-10T01:11:55.554Z,61.83
2023-05-10T01:12:55.624Z,61.83
2023-05-10T01:13:55.668Z,61.93
2023-05-10T01:14:55.794Z,61.86
2023-05-10T01:15:55.900Z,62.14
2023-05-10T01:16:55.933Z,62.07
2023-05-10T01:17:56.022Z,62.27
2023-05-10T01:18:56.108Z,62.48
2023-05-10T01:19:56.156Z,62.27
2023-05-10T01:20:56.243Z,62.48
2023-05-10T01:21:56.303Z,62.37
2023-05-10T01:22:56.376Z,62.58
2023-05-10T01:23:56.457Z,62.78
2023-05-10T01:24:56.528Z,62.48
2023-05-10T01:25:56.623Z,62.48
2023-05-10T01:26:56.698Z,62.27
2023-05-10T01:27:56.767Z,62.17
2023-05-10T01:28:56.838Z,62.17
2023-05-10T01:30:13.585Z,62.17
2023-05-10T01:30:58.019Z,62.37
2023-05-10T01:31:57.072Z,62.48
2023-05-10T01:32:57.190Z,62.27
2023-05-10T01:33:57.240Z,62.68
2023-05-10T01:34:57.306Z,62.78
2023-05-10T01:35:57.381Z,62.78
2023-05-10T01:36:57.475Z,62.99
2023-05-10T01:37:57.567Z,63.40
2023-05-10T01:38:57.630Z,63.20
2023-05-10T01:39:57.703Z,63.22
2023-05-10T01:40:57.795Z,63.32
2023-05-10T01:41:57.861Z,63.53
2023-05-10T01:42:57.951Z,63.53
2023-05-10T01:43:58.051Z,63.73
2023-05-10T01:44:58.121Z,63.43
2023-05-10T01:45:58.198Z,63.73
2023-05-10T01:46:58.338Z,63.84
2023-05-10T01:47:58.407Z,63.84
2023-05-10T01:48:58.422Z,63.94
2023-05-10T01:49:58.511Z,63.53
2023-05-10T01:50:58.601Z,63.84
2023-05-10T01:51:58.652Z,63.73
2023-05-10T01:52:58.768Z,63.84
2023-05-10T01:53:58.980Z,63.94
2023-05-10T01:54:58.910Z,64.04
2023-05-10T01:55:59.018Z,64.25
2023-05-10T01:56:59.093Z,64.35
2023-05-10T01:57:59.177Z,64.56
2023-05-10T01:58:59.226Z,64.48
2023-05-10T01:59:59.348Z,64.69
2023-05-10T02:00:59.459Z,64.79
2023-05-10T02:01:59.513Z,64.59
2023-05-10T02:02:59.670Z,64.79
2023-05-10T02:03:59.744Z,64.79
2023-05-10T02:04:59.775Z,64.59
2023-05-10T02:05:59.858Z,65.00
2023-05-10T02:07:00.012Z,64.48
2023-05-10T02:08:00.035Z,64.38
2023-05-10T02:09:00.146Z,64.48
2023-05-10T02:10:00.243Z,64.79
2023-05-10T02:11:00.302Z,64.79
2023-05-10T02:12:00.374Z,64.89
2023-05-10T02:13:00.498Z,64.89
2023-05-10T02:14:00.568Z,65.00
2023-05-10T02:15:00.601Z,64.89
2023-05-10T02:16:00.680Z,65.00
2023-05-10T02:17:00.813Z,65.00
2023-05-10T02:18:00.890Z,64.69
2023-05-10T02:19:00.982Z,65.30
2023-05-10T02:20:01.017Z,65.10
2023-05-10T02:21:01.126Z,65.54
2023-05-10T02:22:01.186Z,65.74
2023-05-10T02:23:01.251Z,65.44
2023-05-10T02:24:01.399Z,65.44
2023-05-10T02:25:01.405Z,65.74
2023-05-10T02:26:01.611Z,65.74
2023-05-10T02:27:01.564Z,65.95
2023-05-10T02:28:01.665Z,66.25
2023-05-10T02:29:01.746Z,66.05
2023-05-10T02:30:01.841Z,66.25
2023-05-10T02:31:01.946Z,66.19
2023-05-10T02:32:02.059Z,66.08
2023-05-10T02:33:02.063Z,66.16
2023-05-10T02:34:02.116Z,65.84
2023-05-10T02:35:02.180Z,65.84
2023-05-10T02:36:02.336Z,66.16
2023-05-10T02:37:02.378Z,65.95
2023-05-10T02:38:02.465Z,65.95
2023-05-10T02:39:02.513Z,66.19
2023-05-10T02:40:02.571Z,66.19
2023-05-10T02:41:02.676Z,66.25
2023-05-10T02:42:02.708Z,66.19
2023-05-10T02:43:10.289Z,66.19
2023-05-10T02:44:02.932Z,66.08
2023-05-10T02:45:02.955Z,66.08
2023-05-10T02:46:03.049Z,66.49
2023-05-10T02:47:03.127Z,66.08
2023-05-10T02:48:03.238Z,65.98
2023-05-10T02:49:03.264Z,66.28
2023-05-10T02:50:03.411Z,65.98
2023-05-10T02:51:03.425Z,66.49
2023-05-10T02:52:03.584Z,66.70
2023-05-10T02:53:03.605Z,65.98
2023-05-10T02:54:03.724Z,66.19
2023-05-10T02:55:03.791Z,66.28
2023-05-10T02:56:03.886Z,66.19
2023-05-10T02:57:03.997Z,66.19
2023-05-10T02:58:04.066Z,66.49
2023-05-10T02:59:04.136Z,66.19
2023-05-10T03:00:04.192Z,66.39
2023-05-10T03:01:04.256Z,65.98
2023-05-10T03:02:04.310Z,66.19
2023-05-10T03:03:04.486Z,66.39
2023-05-10T03:04:04.551Z,66.19
2023-05-10T03:05:04.591Z,66.08
2023-05-10T03:06:04.630Z,66.08
2023-05-10T03:07:04.738Z,66.08
2023-05-10T03:08:04.862Z,66.70
2023-05-10T03:09:04.951Z,66.42
2023-05-10T03:10:04.965Z,66.93
2023-05-10T03:11:05.069Z,67.03
2023-05-10T03:12:05.128Z,66.83
2023-05-10T03:13:05.257Z,66.52
2023-05-10T03:14:05.333Z,66.52
2023-05-10T03:15:05.405Z,66.52
2023-05-10T03:16:05.528Z,66.52
2023-05-10T03:17:05.478Z,66.52
2023-05-10T03:18:05.610Z,66.31
2023-05-10T03:19:05.736Z,66.42
2023-05-10T03:20:05.777Z,66.52
2023-05-10T03:21:05.877Z,66.31
2023-05-10T03:22:05.928Z,66.22
2023-05-10T03:23:06.037Z,66.22
2023-05-10T03:24:06.122Z,66.63
2023-05-10T03:25:06.189Z,66.42
2023-05-10T03:26:06.355Z,66.52
2023-05-10T03:27:06.372Z,66.42
2023-05-10T03:28:06.488Z,66.83
2023-05-10T03:29:06.550Z,66.63
2023-05-10T03:30:06.649Z,67.14
2023-05-10T03:31:06.830Z,66.73
2023-05-10T03:32:06.815Z,66.93
2023-05-10T03:33:06.991Z,66.73
2023-05-10T03:34:06.974Z,66.83
2023-05-10T03:35:07.085Z,66.93
2023-05-10T03:36:07.190Z,66.73
2023-05-10T03:37:07.208Z,66.63
2023-05-10T03:38:07.370Z,66.83
2023-05-10T03:39:07.390Z,66.42
2023-05-10T03:40:07.496Z,66.63
2023-05-10T03:41:07.566Z,66.83
2023-05-10T03:42:07.645Z,66.93
2023-05-10T03:43:07.782Z,67.38
2023-05-10T03:44:07.776Z,67.35
2023-05-10T03:45:07.830Z,67.38
2023-05-10T03:46:07.978Z,67.58
2023-05-10T03:47:08.094Z,67.38
2023-05-10T03:48:08.173Z,67.58
2023-05-10T03:49:08.173Z,67.89
2023-05-10T03:50:08.288Z,67.99
2023-05-10T03:51:08.361Z,67.68
2023-05-10T03:52:08.481Z,67.48
2023-05-10T03:53:08.542Z,67.48
2023-05-10T03:54:08.567Z,66.86
2023-05-10T03:55:08.624Z,67.24
2023-05-10T03:56:08.775Z,67.55
2023-05-10T03:57:08.787Z,67.65
2023-05-10T03:58:08.948Z,67.35
2023-05-10T03:59:08.976Z,67.14
2023-05-10T04:00:09.073Z,67.24
2023-05-10T04:01:09.114Z,67.44
2023-05-10T04:02:09.305Z,67.65
2023-05-10T04:03:09.385Z,67.14
2023-05-10T04:04:09.484Z,67.44
2023-05-10T04:05:09.446Z,66.93
2023-05-10T04:06:09.565Z,67.76
2023-05-10T04:07:09.589Z,67.35
2023-05-10T04:08:09.692Z,67.14
2023-05-10T04:09:09.851Z,67.03
2023-05-10T04:10:10.000Z,67.14
2023-05-10T04:11:10.003Z,67.35
2023-05-10T04:12:11.126Z,67.44
2023-05-10T04:13:10.200Z,67.35
2023-05-10T04:14:10.241Z,66.93
2023-05-10T04:15:10.339Z,66.83
2023-05-10T04:16:10.419Z,66.83
2023-05-10T04:17:10.482Z,66.39
2023-05-10T04:18:10.622Z,66.49
2023-05-10T04:19:10.622Z,66.80
2023-05-10T04:20:10.738Z,66.80
2023-05-10T04:21:10.757Z,66.49
2023-05-10T04:22:10.851Z,66.28
2023-05-10T04:23:10.913Z,66.19
2023-05-10T04:24:11.028Z,67.11
2023-05-10T04:25:11.142Z,66.39
2023-05-10T04:26:11.151Z,66.28
2023-05-10T04:27:11.207Z,66.49
2023-05-10T04:28:11.313Z,66.60
2023-05-10T04:29:11.381Z,65.98
2023-05-10T04:30:11.505Z,66.05
2023-05-10T04:31:11.588Z,66.25
2023-05-10T04:32:11.661Z,65.84
2023-05-10T04:33:11.740Z,65.95
2023-05-10T04:34:11.829Z,66.05
2023-05-10T04:35:11.941Z,65.44
2023-05-10T04:36:13.008Z,65.74
2023-05-10T04:37:12.100Z,65.54
2023-05-10T04:38:12.128Z,65.74
2023-05-10T04:39:12.181Z,66.16
2023-05-10T04:40:12.282Z,66.02
2023-05-10T04:41:12.364Z,65.84
2023-05-10T04:42:12.495Z,65.95
2023-05-10T04:43:12.495Z,65.61
2023-05-10T04:44:12.611Z,65.92
2023-05-10T04:45:12.677Z,65.30
2023-05-10T04:46:12.814Z,64.79
2023-05-10T04:47:12.942Z,64.56
2023-05-10T04:48:12.972Z,64.86
2023-05-10T04:49:13.064Z,64.76
2023-05-10T04:50:13.175Z,64.14
2023-05-10T04:51:13.248Z,64.01
2023-05-10T04:52:13.385Z,64.12
2023-05-10T04:53:15.887Z,64.12
2023-05-10T04:54:13.470Z,63.91
2023-05-10T04:55:13.536Z,62.88
2023-05-10T04:56:13.623Z,63.06
2023-05-10T04:57:13.740Z,62.55
2023-05-10T04:58:13.839Z,62.55
2023-05-10T04:59:13.846Z,62.85
2023-05-10T05:00:14.090Z,62.93
2023-05-10T05:01:14.008Z,62.11
2023-05-10T05:02:14.146Z,62.42
2023-05-10T05:03:14.170Z,62.11
2023-05-10T05:04:14.304Z,61.47
2023-05-10T05:05:14.275Z,61.47
2023-05-10T05:06:14.504Z,60.96
2023-05-10T05:07:14.429Z,60.75
2023-05-10T05:08:14.554Z,60.83
2023-05-10T05:09:14.662Z,61.24
2023-05-10T05:10:14.783Z,60.93
2023-05-10T05:11:14.753Z,60.21
2023-05-10T05:12:14.827Z,60.31
2023-05-10T05:13:15.048Z,60.90
2023-05-10T05:14:15.107Z,60.08
2023-05-10T05:15:15.201Z,59.57
2023-05-10T05:16:15.286Z,59.37
2023-05-10T05:17:15.321Z,58.93
2023-05-10T05:18:15.380Z,59.44
2023-05-10T05:19:15.392Z,58.93
2023-05-10T05:20:15.722Z,59.34
2023-05-10T05:21:15.541Z,59.23
2023-05-10T05:22:16.191Z,58.83
2023-05-10T05:23:15.675Z,59.44
2023-05-10T05:24:15.779Z,59.34
2023-05-10T05:25:15.912Z,58.60
2023-05-10T05:26:16.047Z,57.98
2023-05-10T05:27:16.099Z,58.80
2023-05-10T05:28:16.142Z,59.08
2023-05-10T05:29:16.216Z,58.16
2023-05-10T05:30:16.416Z,57.24
2023-05-10T05:31:16.445Z,57.55
2023-05-10T05:32:16.497Z,57.86
2023-05-10T05:33:16.558Z,57.65
2023-05-10T05:34:16.632Z,56.84
2023-05-10T05:35:16.891Z,56.63
2023-05-10T05:36:16.754Z,57.24
2023-05-10T05:37:16.864Z,57.42
2023-05-10T05:38:16.969Z,56.91
2023-05-10T05:39:16.988Z,57.73
2023-05-10T05:40:17.068Z,57.32
2023-05-10T05:41:17.245Z,57.21
2023-05-10T05:42:17.267Z,57.01
2023-05-10T05:43:17.344Z,56.68
2023-05-10T05:44:17.439Z,56.27
2023-05-10T05:45:17.820Z,56.88
2023-05-10T05:46:17.683Z,56.58
2023-05-10T05:47:17.759Z,56.48
2023-05-10T05:48:17.791Z,57.19
2023-05-10T05:49:17.888Z,57.06
2023-05-10T05:50:18.082Z,56.65
2023-05-10T05:51:18.079Z,55.84
2023-05-10T05:52:18.147Z,55.84
2023-05-10T05:53:18.172Z,55.81
2023-05-10T05:54:18.260Z,54.79
2023-05-10T05:55:18.670Z,55.41
2023-05-10T05:56:18.440Z,55.89
2023-05-10T05:57:18.578Z,54.05
2023-05-10T05:58:18.566Z,54.16
2023-05-10T05:59:18.636Z,54.77
2023-05-10T06:00:18.712Z,53.42
2023-05-10T06:01:18.791Z,53.63
2023-05-10T06:02:18.980Z,53.02
2023-05-10T06:03:19.033Z,53.22
2023-05-10T06:04:19.044Z,53.52
2023-05-10T06:05:19.215Z,52.98
2023-05-10T06:06:19.182Z,52.58
2023-05-10T06:07:19.326Z,53.09
2023-05-10T06:08:19.347Z,53.27
2023-05-10T06:09:19.436Z,53.47
2023-05-10T06:10:19.499Z,53.06
2023-05-10T06:11:19.614Z,52.43
2023-05-10T06:12:19.744Z,52.23
2023-05-10T06:13:19.923Z,51.62
2023-05-10T06:14:19.844Z,53.42
2023-05-10T06:15:19.995Z,51.18
2023-05-10T06:16:20.046Z,51.79
2023-05-10T06:17:20.050Z,51.18
2023-05-10T06:18:20.126Z,51.49
2023-05-10T06:19:20.230Z,52.08
2023-05-10T06:20:20.372Z,51.57
2023-05-10T06:21:20.397Z,50.56
2023-05-10T06:22:20.522Z,50.25
2023-05-10T06:23:20.582Z,50.53
2023-05-10T06:24:20.646Z,50.73
2023-05-10T06:25:20.810Z,50.33
2023-05-10T06:26:20.792Z,51.95
2023-05-10T06:27:20.864Z,50.33
2023-05-10T06:28:21.065Z,49.82
2023-05-10T06:29:21.037Z,50.10
2023-05-10T06:30:21.243Z,50.40
2023-05-10T06:31:21.220Z,50.91
2023-05-10T06:32:21.345Z,51.21
2023-05-10T06:33:21.412Z,50.00
2023-05-10T06:34:21.530Z,50.28
2023-05-10T06:35:21.605Z,49.29
2023-05-10T06:36:21.649Z,50.81
2023-05-10T06:37:21.771Z,50.79
2023-05-10T06:38:21.776Z,50.08
2023-05-10T06:39:21.865Z,49.98
2023-05-10T06:40:21.979Z,50.76
2023-05-10T06:41:23.964Z,49.04
2023-05-10T06:42:22.075Z,49.85
2023-05-10T06:43:22.159Z,48.94
2023-05-10T06:44:22.233Z,48.54
2023-05-10T06:45:22.402Z,47.82
2023-05-10T06:46:22.458Z,48.23
2023-05-10T06:47:22.503Z,48.94
2023-05-10T06:48:22.722Z,49.14
2023-05-10T06:49:22.655Z,47.72
2023-05-10T06:50:22.730Z,49.95
2023-05-10T06:51:22.845Z,49.65
2023-05-10T06:52:22.931Z,49.14
2023-05-10T06:53:22.964Z,48.82
2023-05-10T06:54:23.043Z,48.31
2023-05-10T06:55:23.117Z,48.71
2023-05-10T06:56:23.182Z,48.61
2023-05-10T06:57:31.117Z,48.71
2023-05-10T06:58:24.345Z,48.21
2023-05-10T06:59:23.419Z,48.21
2023-05-10T07:00:23.592Z,48.71
2023-05-10T07:01:23.723Z,49.83
2023-05-10T07:02:23.660Z,49.30
2023-05-10T07:03:23.896Z,49.10
2023-05-10T07:04:23.794Z,47.67
2023-05-10T07:05:24.014Z,48.26
2023-05-10T07:06:32.843Z,48.79
2023-05-10T07:07:25.025Z,48.57
2023-05-10T07:08:24.127Z,47.98
2023-05-10T07:09:24.160Z,48.16
2023-05-10T07:10:24.303Z,48.36
2023-05-10T07:11:24.332Z,47.96
2023-05-10T07:12:24.435Z,47.74
2023-05-10T07:13:24.570Z,47.13
2023-05-10T07:14:24.553Z,47.94
2023-05-10T07:15:24.631Z,48.14
2023-05-10T07:16:24.759Z,48.34
2023-05-10T07:17:24.825Z,47.43
2023-05-10T07:18:24.930Z,48.65
2023-05-10T07:19:24.978Z,49.86
2023-05-10T07:20:25.020Z,47.71
2023-05-10T07:21:25.163Z,49.13
2023-05-10T07:22:25.166Z,48.42
2023-05-10T07:23:25.278Z,48.10
2023-05-10T07:24:25.395Z,46.37
2023-05-10T07:25:25.440Z,46.98
2023-05-10T07:26:25.530Z,46.68
2023-05-10T07:27:25.612Z,46.40
2023-05-10T07:28:26.716Z,46.30
2023-05-10T07:29:25.842Z,47.81
2023-05-10T07:30:26.002Z,48.11
2023-05-10T07:31:25.910Z,48.70
2023-05-10T07:32:26.163Z,47.49
2023-05-10T07:33:26.058Z,46.37
2023-05-10T07:34:26.205Z,47.99
2023-05-10T07:35:26.279Z,48.47
2023-05-10T07:36:26.287Z,48.07
2023-05-10T07:37:26.346Z,47.06
2023-05-10T07:38:26.412Z,46.94
2023-05-10T07:39:27.996Z,45.42
2023-05-10T07:40:26.647Z,46.13
2023-05-10T07:41:26.817Z,46.13
2023-05-10T07:42:26.788Z,47.24
2023-05-10T07:43:26.808Z,48.15
2023-05-10T07:44:26.900Z,46.03
2023-05-10T07:45:27.109Z,46.13
2023-05-10T07:46:27.112Z,46.73
2023-05-10T07:47:27.209Z,44.92
2023-05-10T07:48:27.197Z,45.53
2023-05-10T07:49:27.314Z,46.13
2023-05-10T07:50:27.362Z,45.62
2023-05-10T07:51:27.698Z,47.04
2023-05-10T07:52:28.499Z,45.12
2023-05-10T07:53:27.588Z,46.92
2023-05-10T07:54:27.660Z,45.83
2023-05-10T07:55:27.774Z,44.82
2023-05-10T07:56:27.930Z,45.93
2023-05-10T07:57:27.955Z,45.02
2023-05-10T07:58:28.094Z,45.02
2023-05-10T07:59:28.170Z,45.73
2023-05-10T08:00:28.213Z,47.52
2023-05-10T08:01:28.367Z,45.90
2023-05-10T08:02:28.586Z,45.90
2023-05-10T08:03:28.600Z,45.70
2023-05-10T08:04:28.566Z,46.71
2023-05-10T08:05:28.630Z,47.02
2023-05-10T08:06:28.713Z,46.59
2023-05-10T08:07:28.788Z,45.28
2023-05-10T08:08:28.949Z,44.57
2023-05-10T08:09:28.977Z,44.57
2023-05-10T08:10:29.032Z,45.28
2023-05-10T08:11:29.109Z,45.89
2023-05-10T08:12:29.323Z,45.48
2023-05-10T08:13:29.280Z,44.78
2023-05-10T08:14:29.363Z,44.57
2023-05-10T08:15:29.412Z,46.67
2023-05-10T08:16:29.667Z,44.15
2023-05-10T08:17:29.634Z,43.65
2023-05-10T08:18:29.737Z,45.16
2023-05-10T08:19:29.760Z,45.16
2023-05-10T08:20:29.846Z,43.44
2023-05-10T08:21:29.973Z,44.95
2023-05-10T08:22:30.016Z,44.15
2023-05-10T08:23:30.132Z,44.65
2023-05-10T08:24:30.239Z,43.24
2023-05-10T08:25:30.317Z,45.26
2023-05-10T08:26:30.327Z,44.35
2023-05-10T08:27:30.381Z,44.35
2023-05-10T08:28:30.467Z,45.76
2023-05-10T08:29:42.343Z,45.34
2023-05-10T08:30:31.669Z,43.32
2023-05-10T08:31:30.769Z,44.02
2023-05-10T08:32:30.823Z,43.12
2023-05-10T08:33:30.880Z,43.93
2023-05-10T08:34:30.932Z,44.73
2023-05-10T08:35:31.062Z,44.53
2023-05-10T08:36:31.099Z,44.83
2023-05-10T08:37:31.182Z,44.61
2023-05-10T08:38:31.250Z,43.60
2023-05-10T08:39:31.399Z,42.72
2023-05-10T08:40:31.488Z,43.42
2023-05-10T08:41:31.542Z,43.93
2023-05-10T08:42:31.602Z,43.02
2023-05-10T08:43:39.250Z,44.02
2023-05-10T08:44:31.758Z,43.22
2023-05-10T08:45:31.866Z,42.52
2023-05-10T08:46:31.957Z,42.90
2023-05-10T08:47:31.985Z,44.41
2023-05-10T08:48:32.087Z,44.01
2023-05-10T08:49:32.125Z,43.73
2023-05-10T08:50:32.207Z,44.33
2023-05-10T08:51:32.347Z,43.30
2023-05-10T08:52:32.381Z,41.99
2023-05-10T08:53:32.463Z,42.50
2023-05-10T08:54:32.527Z,44.49
2023-05-10T08:55:32.604Z,43.28
2023-05-10T08:56:32.730Z,44.19
2023-05-10T08:57:32.764Z,44.89
2023-05-10T08:58:32.886Z,43.66
2023-05-10T08:59:32.941Z,44.55
2023-05-10T09:00:33.018Z,42.84
2023-05-10T09:01:33.127Z,43.62
2023-05-10T09:02:33.176Z,41.91
2023-05-10T09:03:33.262Z,43.02
2023-05-10T09:04:33.375Z,42.32
2023-05-10T09:05:33.481Z,41.43
2023-05-10T09:06:33.512Z,44.95
2023-05-10T09:07:35.258Z,42.84
2023-05-10T09:08:33.703Z,42.03
2023-05-10T09:09:33.789Z,43.95
2023-05-10T09:10:33.939Z,42.24
2023-05-10T09:11:33.978Z,42.44
2023-05-10T09:12:34.000Z,41.43
2023-05-10T09:13:34.108Z,40.92
2023-05-10T09:14:34.150Z,42.72
2023-05-10T09:15:34.232Z,42.52
2023-05-10T09:16:34.315Z,41.71
2023-05-10T09:17:34.425Z,41.41
2023-05-10T09:18:34.545Z,41.21
2023-05-10T09:19:34.558Z,42.90
2023-05-10T09:20:34.633Z,40.69
2023-05-10T09:21:34.739Z,41.99
2023-05-10T09:22:34.787Z,42.80
2023-05-10T09:23:34.899Z,41.79
2023-05-10T09:24:35.000Z,41.69
2023-05-10T09:25:35.041Z,42.40
2023-05-10T09:26:35.122Z,41.39
2023-05-10T09:27:35.259Z,41.09
2023-05-10T09:28:35.306Z,42.19
2023-05-10T09:29:35.392Z,42.41
2023-05-10T09:30:35.459Z,41.19
2023-05-10T09:31:35.534Z,41.79
2023-05-10T09:32:35.606Z,39.26
2023-05-10T09:33:35.717Z,42.88
2023-05-10T09:34:35.763Z,44.36
2023-05-10T09:35:35.880Z,40.05
2023-05-10T09:36:35.920Z,40.45
2023-05-10T09:37:35.994Z,42.16
2023-05-10T09:38:36.070Z,42.66
2023-05-10T09:39:36.143Z,41.75
2023-05-10T09:40:36.256Z,41.05
2023-05-10T09:41:36.321Z,41.96
2023-05-10T09:42:36.388Z,42.03
2023-05-10T09:43:36.472Z,43.54
2023-05-10T09:44:36.557Z,40.63
2023-05-10T09:45:38.582Z,38.92
2023-05-10T09:46:36.822Z,38.12
2023-05-10T09:47:36.843Z,39.12
2023-05-10T09:48:36.904Z,40.23
2023-05-10T09:49:36.981Z,40.81
2023-05-10T09:50:37.095Z,39.31
2023-05-10T09:51:37.166Z,38.51
2023-05-10T09:52:37.210Z,40.11
2023-05-10T09:53:37.374Z,40.31
2023-05-10T09:54:37.436Z,39.81
2023-05-10T09:55:37.487Z,38.40
2023-05-10T09:56:37.581Z,40.79
2023-05-10T09:57:37.642Z,39.21
2023-05-10T09:58:37.728Z,41.19
2023-05-10T09:59:37.826Z,38.89
2023-05-10T10:00:37.908Z,38.09
2023-05-10T10:01:38.001Z,40.59
2023-05-10T10:02:38.161Z,39.49
2023-05-10T10:03:38.127Z,39.29
2023-05-10T10:04:38.265Z,39.89
2023-05-10T10:05:38.273Z,37.96
2023-05-10T10:06:38.399Z,37.98
2023-05-10T10:07:38.438Z,38.97
2023-05-10T10:08:38.536Z,39.07
2023-05-10T10:09:38.613Z,37.96
2023-05-10T10:10:38.693Z,38.29
2023-05-10T10:11:38.815Z,39.29
2023-05-10T10:12:38.874Z,38.27
2023-05-10T10:13:38.968Z,39.77
2023-05-10T10:14:39.082Z,39.15
2023-05-10T10:15:39.215Z,39.35
2023-05-10T10:16:48.543Z,39.53
2023-05-10T10:17:40.382Z,36.33
2023-05-10T10:18:39.411Z,36.93
2023-05-10T10:19:39.460Z,36.85
2023-05-10T10:20:39.635Z,38.85
2023-05-10T10:21:39.584Z,38.55
2023-05-10T10:22:39.664Z,38.75
2023-05-10T10:23:39.741Z,37.23
2023-05-10T10:24:39.828Z,37.63
2023-05-10T10:25:39.935Z,37.23
2023-05-10T10:26:40.017Z,38.23
2023-05-10T10:27:40.051Z,37.31
2023-05-10T10:28:40.161Z,36.21
2023-05-10T10:29:40.247Z,38.20
2023-05-10T10:30:40.316Z,37.10
2023-05-10T10:31:40.461Z,36.81
2023-05-10T10:32:40.512Z,37.92
2023-05-10T10:33:40.573Z,37.11
2023-05-10T10:34:40.676Z,36.99
2023-05-10T10:35:40.752Z,38.40
2023-05-10T10:36:40.896Z,37.59
2023-05-10T10:37:40.951Z,36.78
2023-05-10T10:38:41.046Z,36.68
2023-05-10T10:39:41.075Z,36.78
2023-05-10T10:40:41.220Z,38.96
2023-05-10T10:41:41.249Z,34.56
2023-05-10T10:42:41.355Z,36.76
2023-05-10T10:43:41.485Z,36.36
2023-05-10T10:44:41.516Z,36.16
2023-05-10T10:45:42.270Z,36.78
2023-05-10T10:46:41.777Z,36.66
2023-05-10T10:47:41.766Z,38.46
2023-05-10T10:48:41.826Z,37.66
2023-05-10T10:49:41.887Z,35.86
2023-05-10T10:50:42.810Z,38.76
2023-05-10T10:51:42.096Z,37.44
2023-05-10T10:52:42.250Z,37.74
2023-05-10T10:53:42.225Z,36.96
2023-05-10T10:54:42.330Z,37.26
2023-05-10T10:55:42.385Z,36.66
2023-05-10T10:56:42.445Z,36.94
2023-05-10T10:57:42.623Z,36.24
2023-05-10T10:58:42.618Z,37.04
2023-05-10T10:59:42.715Z,36.43
2023-05-10T11:00:42.870Z,37.72
2023-05-10T11:01:42.883Z,34.93
2023-05-10T11:02:43.033Z,37.23
2023-05-10T11:03:43.055Z,36.51
2023-05-10T11:04:43.193Z,36.21
2023-05-10T11:05:43.270Z,34.51
2023-05-10T11:06:43.320Z,35.53
2023-05-10T11:07:43.387Z,37.52
2023-05-10T11:08:43.465Z,36.13
2023-05-10T11:09:43.562Z,35.33
2023-05-10T11:10:43.674Z,37.82
2023-05-10T11:11:43.700Z,35.72
2023-05-10T11:12:43.789Z,34.25
2023-05-10T11:13:43.861Z,35.83
2023-05-10T11:14:43.961Z,34.63
2023-05-10T11:15:44.060Z,35.03
2023-05-10T11:16:44.211Z,36.91
2023-05-10T11:17:44.313Z,34.51
2023-05-10T11:18:44.396Z,33.81
2023-05-10T11:19:44.362Z,35.01
2023-05-10T11:20:44.433Z,33.72
2023-05-10T11:21:44.553Z,37.42
2023-05-10T11:22:44.582Z,34.71
2023-05-10T11:23:44.712Z,36.79
2023-05-10T11:24:44.742Z,34.50
2023-05-10T11:25:44.847Z,34.61
2023-05-10T11:26:45.138Z,35.93
2023-05-10T11:27:45.026Z,36.02
2023-05-10T11:28:45.123Z,35.61
2023-05-10T11:29:45.152Z,34.51
2023-05-10T11:30:45.375Z,36.59
2023-05-10T11:31:45.385Z,34.09
2023-05-10T11:32:45.432Z,34.11
2023-05-10T11:33:45.513Z,34.61
2023-05-10T11:34:45.600Z,37.38
2023-05-10T11:35:45.639Z,33.78
2023-05-10T11:36:45.759Z,36.67
2023-05-10T11:37:45.794Z,34.76
2023-05-10T11:38:45.892Z,35.96
2023-05-10T11:39:45.964Z,34.16
2023-05-10T11:40:46.036Z,36.16
2023-05-10T11:41:46.179Z,37.13
2023-05-10T11:42:46.225Z,32.75
2023-05-10T11:43:46.267Z,34.46
2023-05-10T11:44:46.338Z,32.67
2023-05-10T11:45:46.436Z,33.47
2023-05-10T11:46:46.662Z,34.27
2023-05-10T11:47:46.611Z,36.05
2023-05-10T11:48:46.671Z,33.07
2023-05-10T11:49:46.751Z,36.65
2023-05-10T11:50:46.867Z,33.75
2023-05-10T11:51:46.982Z,33.14
2023-05-10T11:52:47.096Z,33.63
2023-05-10T11:53:47.136Z,33.73
2023-05-10T11:54:47.276Z,32.74
2023-05-10T11:55:47.315Z,31.26
2023-05-10T11:56:47.448Z,34.36
2023-05-10T11:57:47.514Z,33.05
2023-05-10T11:58:47.590Z,36.32
2023-05-10T11:59:47.659Z,30.85
2023-05-10T12:00:47.736Z,32.84
2023-05-10T12:01:47.824Z,33.22
2023-05-10T12:02:48.054Z,30.73
2023-05-10T12:03:48.043Z,31.05
2023-05-10T12:04:48.239Z,32.72
2023-05-10T12:05:48.149Z,33.92
2023-05-10T12:06:48.252Z,32.23
2023-05-10T12:07:48.285Z,32.12
2023-05-10T12:08:48.358Z,33.11
2023-05-10T12:09:48.462Z,31.12
2023-05-10T12:10:48.518Z,30.82
2023-05-10T12:11:48.590Z,30.72
2023-05-10T12:12:48.698Z,31.41
2023-05-10T12:13:48.789Z,32.11
2023-05-10T12:14:48.897Z,29.22
2023-05-10T12:15:48.927Z,29.54
2023-05-10T12:16:49.060Z,32.60
2023-05-10T12:17:49.164Z,31.61
2023-05-10T12:18:49.228Z,29.52
2023-05-10T12:19:49.264Z,29.93
2023-05-10T12:20:49.364Z,29.82
2023-05-10T12:21:49.402Z,29.52
2023-05-10T12:22:49.505Z,30.33
2023-05-10T12:23:49.581Z,30.05
2023-05-10T12:24:49.684Z,31.45
2023-05-10T12:25:49.797Z,30.75
2023-05-10T12:26:49.901Z,31.83
2023-05-10T12:27:49.937Z,30.13
2023-05-10T12:28:50.017Z,30.93
2023-05-10T12:29:50.097Z,30.73
2023-05-10T12:30:50.211Z,31.53
2023-05-10T12:31:50.259Z,32.93
2023-05-10T12:32:50.331Z,31.03
2023-05-10T12:33:50.438Z,30.04
2023-05-10T12:34:50.494Z,30.43
2023-05-10T12:35:50.611Z,30.83
2023-05-10T12:36:50.665Z,30.45
2023-05-10T12:37:50.722Z,31.13
2023-05-10T12:38:50.813Z,31.53
2023-05-10T12:39:50.901Z,29.52
2023-05-10T12:40:51.079Z,29.71
2023-05-10T12:41:51.029Z,29.13
2023-05-10T12:42:51.159Z,26.75
2023-05-10T12:43:51.192Z,29.34
2023-05-10T12:44:51.303Z,28.83
2023-05-10T12:45:51.436Z,28.73
2023-05-10T12:46:51.459Z,27.72
2023-05-10T12:47:51.561Z,29.11
2023-05-10T12:48:57.570Z,30.60
2023-05-10T12:49:52.708Z,29.81
2023-05-10T12:50:51.844Z,28.52
2023-05-10T12:51:51.884Z,28.81
2023-05-10T12:52:51.989Z,29.13
2023-05-10T12:53:52.025Z,29.91